sensor_id;sensor_type;location;lat;lon;timestamp;P1;durP1;ratioP1;P2;durP2;ratioP2
15102;SDS011;7652;53.584;9.998;2023-04-25T00:01:31;5.90;;;2.83;;
15102;SDS011;7652;53.584;9.998;2023-04-25T00:04:36;4.30;;;3.07;;
15102;SDS011;7652;53.584;9.998;2023-04-25T00:07:40;8.80;;;3.30;;
15102;SDS011;7652;53.584;9.998;2023-04-25T00:10:45;6.83;;;3.07;;
15102;SDS011;7652;53.584;9.998;2023-04-25T00:13:50;10.63;;;3.17;;
15102;SDS011;7652;53.584;9.998;2023-04-25T00:16:53;8.80;;;3.57;;
15102;SDS011;7652;53.584;9.998;2023-04-25T00:19:56;5.83;;;2.80;;
15102;SDS011;7652;53.584;9.998;2023-04-25T00:22:59;12.50;;;3.93;;
15102;SDS011;7652;53.584;9.998;2023-04-25T00:26:03;11.23;;;3.17;;
15102;SDS011;7652;53.584;9.998;2023-04-25T00:29:07;13.43;;;3.57;;
15102;SDS011;7652;53.584;9.998;2023-04-25T00:32:09;10.73;;;3.53;;
15102;SDS011;7652;53.584;9.998;2023-04-25T00:35:12;13.10;;;3.50;;
15102;SDS011;7652;53.584;9.998;2023-04-25T00:38:15;9.47;;;2.80;;
15102;SDS011;7652;53.584;9.998;2023-04-25T00:41:20;15.07;;;3.30;;
15102;SDS011;7652;53.584;9.998;2023-04-25T00:44:23;13.23;;;3.77;;
15102;SDS011;7652;53.584;9.998;2023-04-25T00:47:28;14.87;;;2.77;;
15102;SDS011;7652;53.584;9.998;2023-04-25T00:50:32;15.53;;;3.40;;
15102;SDS011;7652;53.584;9.998;2023-04-25T00:53:36;9.50;;;2.60;;
15102;SDS011;7652;53.584;9.998;2023-04-25T00:56:40;13.03;;;3.67;;
15102;SDS011;7652;53.584;9.998;2023-04-25T00:59:45;18.47;;;3.67;;
15102;SDS011;7652;53.584;9.998;2023-04-25T01:02:48;13.03;;;3.20;;
15102;SDS011;7652;53.584;9.998;2023-04-25T01:05:52;13.63;;;2.90;;
15102;SDS011;7652;53.584;9.998;2023-04-25T01:08:55;17.23;;;4.03;;
15102;SDS011;7652;53.584;9.998;2023-04-25T01:12:00;12.57;;;3.67;;
15102;SDS011;7652;53.584;9.998;2023-04-25T01:15:04;8.13;;;3.10;;
15102;SDS011;7652;53.584;9.998;2023-04-25T01:18:07;10.87;;;3.67;;
15102;SDS011;7652;53.584;9.998;2023-04-25T01:21:12;15.13;;;3.40;;
15102;SDS011;7652;53.584;9.998;2023-04-25T01:24:16;19.07;;;3.37;;
15102;SDS011;7652;53.584;9.998;2023-04-25T01:27:19;15.20;;;3.23;;
15102;SDS011;7652;53.584;9.998;2023-04-25T01:30:25;14.00;;;3.10;;
15102;SDS011;7652;53.584;9.998;2023-04-25T01:33:28;12.50;;;3.63;;
15102;SDS011;7652;53.584;9.998;2023-04-25T01:36:33;10.27;;;2.97;;
15102;SDS011;7652;53.584;9.998;2023-04-25T01:39:37;18.70;;;3.50;;
15102;SDS011;7652;53.584;9.998;2023-04-25T01:42:41;12.43;;;3.60;;
15102;SDS011;7652;53.584;9.998;2023-04-25T01:45:45;15.27;;;3.50;;
15102;SDS011;7652;53.584;9.998;2023-04-25T01:48:48;10.23;;;3.17;;
15102;SDS011;7652;53.584;9.998;2023-04-25T01:51:53;12.17;;;3.33;;
15102;SDS011;7652;53.584;9.998;2023-04-25T01:54:56;15.13;;;3.77;;
15102;SDS011;7652;53.584;9.998;2023-04-25T01:58:00;15.57;;;3.70;;
15102;SDS011;7652;53.584;9.998;2023-04-25T02:01:04;12.07;;;3.83;;
15102;SDS011;7652;53.584;9.998;2023-04-25T02:04:07;17.83;;;3.87;;
15102;SDS011;7652;53.584;9.998;2023-04-25T02:07:12;14.47;;;3.70;;
15102;SDS011;7652;53.584;9.998;2023-04-25T02:10:15;14.40;;;3.00;;
15102;SDS011;7652;53.584;9.998;2023-04-25T02:13:18;13.40;;;3.37;;
15102;SDS011;7652;53.584;9.998;2023-04-25T02:16:21;19.93;;;4.77;;
15102;SDS011;7652;53.584;9.998;2023-04-25T02:19:24;15.87;;;4.20;;
15102;SDS011;7652;53.584;9.998;2023-04-25T02:22:29;20.07;;;3.47;;
15102;SDS011;7652;53.584;9.998;2023-04-25T02:25:32;8.07;;;3.03;;
15102;SDS011;7652;53.584;9.998;2023-04-25T02:28:35;15.63;;;3.73;;
15102;SDS011;7652;53.584;9.998;2023-04-25T02:31:38;13.23;;;3.40;;
15102;SDS011;7652;53.584;9.998;2023-04-25T02:34:41;13.60;;;3.43;;
15102;SDS011;7652;53.584;9.998;2023-04-25T02:37:45;12.03;;;3.33;;
15102;SDS011;7652;53.584;9.998;2023-04-25T02:40:48;11.10;;;4.17;;
15102;SDS011;7652;53.584;9.998;2023-04-25T02:43:51;16.40;;;3.17;;
15102;SDS011;7652;53.584;9.998;2023-04-25T02:46:54;20.73;;;3.83;;
15102;SDS011;7652;53.584;9.998;2023-04-25T02:49:57;11.73;;;3.60;;
15102;SDS011;7652;53.584;9.998;2023-04-25T02:53:01;10.83;;;3.53;;
15102;SDS011;7652;53.584;9.998;2023-04-25T02:56:05;14.83;;;3.03;;
15102;SDS011;7652;53.584;9.998;2023-04-25T02:59:08;13.67;;;3.37;;
15102;SDS011;7652;53.584;9.998;2023-04-25T03:02:11;9.10;;;3.43;;
15102;SDS011;7652;53.584;9.998;2023-04-25T03:05:14;17.03;;;3.37;;
15102;SDS011;7652;53.584;9.998;2023-04-25T03:08:19;13.37;;;3.03;;
15102;SDS011;7652;53.584;9.998;2023-04-25T03:11:22;16.07;;;3.07;;
15102;SDS011;7652;53.584;9.998;2023-04-25T03:14:28;14.77;;;3.37;;
15102;SDS011;7652;53.584;9.998;2023-04-25T03:17:31;14.00;;;3.30;;
15102;SDS011;7652;53.584;9.998;2023-04-25T03:20:34;14.90;;;3.30;;
15102;SDS011;7652;53.584;9.998;2023-04-25T03:23:39;12.53;;;2.67;;
15102;SDS011;7652;53.584;9.998;2023-04-25T03:26:42;11.20;;;2.67;;
15102;SDS011;7652;53.584;9.998;2023-04-25T03:29:45;10.07;;;2.80;;
15102;SDS011;7652;53.584;9.998;2023-04-25T03:32:48;16.63;;;3.10;;
15102;SDS011;7652;53.584;9.998;2023-04-25T03:35:51;8.50;;;2.83;;
15102;SDS011;7652;53.584;9.998;2023-04-25T03:38:56;11.73;;;3.37;;
15102;SDS011;7652;53.584;9.998;2023-04-25T03:41:59;8.67;;;3.07;;
15102;SDS011;7652;53.584;9.998;2023-04-25T03:45:02;18.90;;;3.03;;
15102;SDS011;7652;53.584;9.998;2023-04-25T03:48:05;9.57;;;3.40;;
15102;SDS011;7652;53.584;9.998;2023-04-25T03:51:09;10.53;;;2.53;;
15102;SDS011;7652;53.584;9.998;2023-04-25T03:54:13;12.97;;;3.30;;
15102;SDS011;7652;53.584;9.998;2023-04-25T03:57:16;10.50;;;2.57;;
15102;SDS011;7652;53.584;9.998;2023-04-25T04:00:19;14.87;;;2.77;;
15102;SDS011;7652;53.584;9.998;2023-04-25T04:03:22;13.10;;;2.63;;
15102;SDS011;7652;53.584;9.998;2023-04-25T04:06:26;11.40;;;3.00;;
15102;SDS011;7652;53.584;9.998;2023-04-25T04:09:31;16.77;;;2.80;;
15102;SDS011;7652;53.584;9.998;2023-04-25T04:12:34;11.10;;;2.97;;
15102;SDS011;7652;53.584;9.998;2023-04-25T04:15:37;18.93;;;3.27;;
15102;SDS011;7652;53.584;9.998;2023-04-25T04:18:40;16.77;;;3.63;;
15102;SDS011;7652;53.584;9.998;2023-04-25T04:21:43;14.00;;;3.23;;
15102;SDS011;7652;53.584;9.998;2023-04-25T04:24:47;11.80;;;2.60;;
15102;SDS011;7652;53.584;9.998;2023-04-25T04:27:51;13.70;;;2.77;;
15102;SDS011;7652;53.584;9.998;2023-04-25T04:30:55;14.77;;;2.60;;
15102;SDS011;7652;53.584;9.998;2023-04-25T04:33:59;11.07;;;2.83;;
15102;SDS011;7652;53.584;9.998;2023-04-25T04:37:02;13.43;;;3.03;;
15102;SDS011;7652;53.584;9.998;2023-04-25T04:40:08;10.70;;;2.80;;
15102;SDS011;7652;53.584;9.998;2023-04-25T04:43:11;12.20;;;2.33;;
15102;SDS011;7652;53.584;9.998;2023-04-25T04:46:15;13.10;;;2.90;;
15102;SDS011;7652;53.584;9.998;2023-04-25T04:49:20;10.03;;;2.80;;
15102;SDS011;7652;53.584;9.998;2023-04-25T04:52:23;8.13;;;2.40;;
15102;SDS011;7652;53.584;9.998;2023-04-25T04:55:28;11.17;;;2.90;;
15102;SDS011;7652;53.584;9.998;2023-04-25T04:58:31;10.50;;;2.57;;
15102;SDS011;7652;53.584;9.998;2023-04-25T05:01:34;12.87;;;3.90;;
15102;SDS011;7652;53.584;9.998;2023-04-25T05:04:37;10.93;;;2.70;;
15102;SDS011;7652;53.584;9.998;2023-04-25T05:07:41;13.47;;;3.50;;
15102;SDS011;7652;53.584;9.998;2023-04-25T05:10:45;25.27;;;10.83;;
15102;SDS011;7652;53.584;9.998;2023-04-25T05:13:48;15.47;;;2.77;;
15102;SDS011;7652;53.584;9.998;2023-04-25T05:16:52;9.13;;;2.67;;
15102;SDS011;7652;53.584;9.998;2023-04-25T05:19:55;10.03;;;2.77;;
15102;SDS011;7652;53.584;9.998;2023-04-25T05:22:58;11.50;;;2.30;;
15102;SDS011;7652;53.584;9.998;2023-04-25T05:26:02;11.10;;;2.80;;
15102;SDS011;7652;53.584;9.998;2023-04-25T05:29:06;9.70;;;2.23;;
15102;SDS011;7652;53.584;9.998;2023-04-25T05:32:09;9.83;;;2.67;;
15102;SDS011;7652;53.584;9.998;2023-04-25T05:35:12;13.27;;;2.73;;
15102;SDS011;7652;53.584;9.998;2023-04-25T05:38:15;8.97;;;2.30;;
15102;SDS011;7652;53.584;9.998;2023-04-25T05:41:20;13.17;;;2.97;;
15102;SDS011;7652;53.584;9.998;2023-04-25T05:44:23;10.93;;;2.23;;
15102;SDS011;7652;53.584;9.998;2023-04-25T05:47:26;9.67;;;2.60;;
15102;SDS011;7652;53.584;9.998;2023-04-25T05:50:29;15.60;;;3.10;;
15102;SDS011;7652;53.584;9.998;2023-04-25T05:53:32;11.77;;;2.93;;
15102;SDS011;7652;53.584;9.998;2023-04-25T05:56:36;11.93;;;3.67;;
15102;SDS011;7652;53.584;9.998;2023-04-25T05:59:39;9.13;;;2.50;;
15102;SDS011;7652;53.584;9.998;2023-04-25T06:02:42;13.70;;;2.67;;
15102;SDS011;7652;53.584;9.998;2023-04-25T06:05:45;11.63;;;2.43;;
15102;SDS011;7652;53.584;9.998;2023-04-25T06:08:49;13.73;;;3.67;;
15102;SDS011;7652;53.584;9.998;2023-04-25T06:11:53;11.97;;;3.10;;
15102;SDS011;7652;53.584;9.998;2023-04-25T06:14:56;7.53;;;2.27;;
15102;SDS011;7652;53.584;9.998;2023-04-25T06:17:59;12.33;;;2.70;;
15102;SDS011;7652;53.584;9.998;2023-04-25T06:21:03;8.57;;;2.17;;
15102;SDS011;7652;53.584;9.998;2023-04-25T06:24:06;7.47;;;2.07;;
15102;SDS011;7652;53.584;9.998;2023-04-25T06:27:10;9.80;;;2.77;;
15102;SDS011;7652;53.584;9.998;2023-04-25T06:30:16;10.90;;;2.37;;
15102;SDS011;7652;53.584;9.998;2023-04-25T06:33:23;7.20;;;2.10;;
15102;SDS011;7652;53.584;9.998;2023-04-25T06:36:28;9.27;;;2.17;;
15102;SDS011;7652;53.584;9.998;2023-04-25T06:39:31;11.30;;;3.20;;
15102;SDS011;7652;53.584;9.998;2023-04-25T06:42:36;12.87;;;2.43;;
15102;SDS011;7652;53.584;9.998;2023-04-25T06:45:39;10.80;;;2.30;;
15102;SDS011;7652;53.584;9.998;2023-04-25T06:48:42;8.90;;;2.20;;
15102;SDS011;7652;53.584;9.998;2023-04-25T06:51:45;16.83;;;2.50;;
15102;SDS011;7652;53.584;9.998;2023-04-25T06:54:48;5.80;;;2.50;;
15102;SDS011;7652;53.584;9.998;2023-04-25T06:57:52;11.80;;;2.17;;
15102;SDS011;7652;53.584;9.998;2023-04-25T07:00:56;9.67;;;2.83;;
15102;SDS011;7652;53.584;9.998;2023-04-25T07:03:59;8.50;;;2.50;;
15102;SDS011;7652;53.584;9.998;2023-04-25T07:07:02;5.93;;;1.93;;
15102;SDS011;7652;53.584;9.998;2023-04-25T07:10:05;5.53;;;1.90;;
15102;SDS011;7652;53.584;9.998;2023-04-25T07:13:10;7.57;;;1.77;;
15102;SDS011;7652;53.584;9.998;2023-04-25T07:16:13;7.47;;;1.80;;
15102;SDS011;7652;53.584;9.998;2023-04-25T07:19:16;8.77;;;2.17;;
15102;SDS011;7652;53.584;9.998;2023-04-25T07:22:19;9.27;;;2.03;;
15102;SDS011;7652;53.584;9.998;2023-04-25T07:25:22;8.90;;;1.60;;
15102;SDS011;7652;53.584;9.998;2023-04-25T07:28:26;10.70;;;2.10;;
15102;SDS011;7652;53.584;9.998;2023-04-25T07:31:29;6.13;;;1.93;;
15102;SDS011;7652;53.584;9.998;2023-04-25T07:34:32;4.53;;;1.53;;
15102;SDS011;7652;53.584;9.998;2023-04-25T07:37:38;10.70;;;1.80;;
15102;SDS011;7652;53.584;9.998;2023-04-25T07:40:41;7.03;;;1.77;;
15102;SDS011;7652;53.584;9.998;2023-04-25T07:43:45;6.17;;;2.03;;
15102;SDS011;7652;53.584;9.998;2023-04-25T07:46:48;9.67;;;2.30;;
15102;SDS011;7652;53.584;9.998;2023-04-25T07:49:51;5.07;;;1.60;;
15102;SDS011;7652;53.584;9.998;2023-04-25T07:52:54;10.17;;;2.17;;
15102;SDS011;7652;53.584;9.998;2023-04-25T07:55:57;5.87;;;1.60;;
15102;SDS011;7652;53.584;9.998;2023-04-25T07:59:02;8.43;;;2.00;;
15102;SDS011;7652;53.584;9.998;2023-04-25T08:02:05;5.70;;;2.53;;
15102;SDS011;7652;53.584;9.998;2023-04-25T08:05:08;7.70;;;1.73;;
15102;SDS011;7652;53.584;9.998;2023-04-25T08:08:13;8.30;;;2.10;;
15102;SDS011;7652;53.584;9.998;2023-04-25T08:11:16;5.43;;;1.73;;
15102;SDS011;7652;53.584;9.998;2023-04-25T08:14:21;6.97;;;1.63;;
15102;SDS011;7652;53.584;9.998;2023-04-25T08:17:24;6.67;;;2.13;;
15102;SDS011;7652;53.584;9.998;2023-04-25T08:20:27;8.23;;;2.00;;
15102;SDS011;7652;53.584;9.998;2023-04-25T08:23:30;8.10;;;1.60;;
15102;SDS011;7652;53.584;9.998;2023-04-25T08:26:33;8.27;;;2.00;;
15102;SDS011;7652;53.584;9.998;2023-04-25T08:29:37;4.57;;;1.67;;
15102;SDS011;7652;53.584;9.998;2023-04-25T08:32:40;9.73;;;3.10;;
15102;SDS011;7652;53.584;9.998;2023-04-25T08:35:44;10.53;;;1.90;;
15102;SDS011;7652;53.584;9.998;2023-04-25T08:38:47;10.23;;;1.80;;
15102;SDS011;7652;53.584;9.998;2023-04-25T08:41:51;6.20;;;2.00;;
15102;SDS011;7652;53.584;9.998;2023-04-25T08:44:56;6.47;;;1.57;;
15102;SDS011;7652;53.584;9.998;2023-04-25T08:48:00;7.23;;;1.80;;
15102;SDS011;7652;53.584;9.998;2023-04-25T08:51:06;8.23;;;1.90;;
15102;SDS011;7652;53.584;9.998;2023-04-25T08:54:11;7.77;;;1.47;;
15102;SDS011;7652;53.584;9.998;2023-04-25T08:57:18;7.27;;;1.90;;
15102;SDS011;7652;53.584;9.998;2023-04-25T09:00:24;5.23;;;1.60;;
15102;SDS011;7652;53.584;9.998;2023-04-25T09:03:27;8.30;;;2.07;;
15102;SDS011;7652;53.584;9.998;2023-04-25T09:06:31;7.03;;;1.87;;
15102;SDS011;7652;53.584;9.998;2023-04-25T09:09:36;6.73;;;1.70;;
15102;SDS011;7652;53.584;9.998;2023-04-25T09:12:39;4.77;;;1.70;;
15102;SDS011;7652;53.584;9.998;2023-04-25T09:15:49;3.23;;;1.30;;
15102;SDS011;7652;53.584;9.998;2023-04-25T09:18:53;8.00;;;1.57;;
15102;SDS011;7652;53.584;9.998;2023-04-25T09:21:57;3.03;;;1.03;;
15102;SDS011;7652;53.584;9.998;2023-04-25T09:25:02;8.87;;;1.80;;
15102;SDS011;7652;53.584;9.998;2023-04-25T09:28:08;4.90;;;1.37;;
15102;SDS011;7652;53.584;9.998;2023-04-25T09:31:20;5.87;;;1.40;;
15102;SDS011;7652;53.584;9.998;2023-04-25T09:34:25;6.80;;;1.43;;
15102;SDS011;7652;53.584;9.998;2023-04-25T09:37:29;5.60;;;1.70;;
15102;SDS011;7652;53.584;9.998;2023-04-25T09:40:33;7.23;;;1.67;;
15102;SDS011;7652;53.584;9.998;2023-04-25T09:43:36;5.63;;;1.40;;
15102;SDS011;7652;53.584;9.998;2023-04-25T09:46:40;7.60;;;1.67;;
15102;SDS011;7652;53.584;9.998;2023-04-25T09:49:44;8.33;;;1.90;;
15102;SDS011;7652;53.584;9.998;2023-04-25T09:52:48;5.40;;;2.37;;
15102;SDS011;7652;53.584;9.998;2023-04-25T09:56:05;8.40;;;1.67;;
15102;SDS011;7652;53.584;9.998;2023-04-25T09:59:10;6.03;;;1.50;;
15102;SDS011;7652;53.584;9.998;2023-04-25T10:02:16;12.30;;;3.30;;
15102;SDS011;7652;53.584;9.998;2023-04-25T10:05:21;4.90;;;1.50;;
15102;SDS011;7652;53.584;9.998;2023-04-25T10:08:27;5.80;;;1.43;;
15102;SDS011;7652;53.584;9.998;2023-04-25T10:11:34;6.33;;;1.57;;
15102;SDS011;7652;53.584;9.998;2023-04-25T10:14:38;6.00;;;1.90;;
15102;SDS011;7652;53.584;9.998;2023-04-25T10:17:43;6.37;;;1.50;;
15102;SDS011;7652;53.584;9.998;2023-04-25T10:20:47;4.00;;;1.20;;
15102;SDS011;7652;53.584;9.998;2023-04-25T10:23:50;6.33;;;1.20;;
15102;SDS011;7652;53.584;9.998;2023-04-25T10:26:54;8.87;;;1.63;;
15102;SDS011;7652;53.584;9.998;2023-04-25T10:30:03;4.43;;;1.30;;
15102;SDS011;7652;53.584;9.998;2023-04-25T10:33:17;13.27;;;1.93;;
15102;SDS011;7652;53.584;9.998;2023-04-25T10:36:21;4.17;;;1.40;;
15102;SDS011;7652;53.584;9.998;2023-04-25T10:39:26;6.43;;;1.53;;
15102;SDS011;7652;53.584;9.998;2023-04-25T10:42:30;5.50;;;1.33;;
15102;SDS011;7652;53.584;9.998;2023-04-25T10:45:39;4.07;;;1.13;;
15102;SDS011;7652;53.584;9.998;2023-04-25T10:48:55;6.77;;;1.20;;
15102;SDS011;7652;53.584;9.998;2023-04-25T10:52:15;6.93;;;1.53;;
15102;SDS011;7652;53.584;9.998;2023-04-25T10:55:19;4.87;;;2.40;;
15102;SDS011;7652;53.584;9.998;2023-04-25T10:58:23;3.57;;;1.40;;
15102;SDS011;7652;53.584;9.998;2023-04-25T11:01:26;2.93;;;1.03;;
15102;SDS011;7652;53.584;9.998;2023-04-25T11:04:38;4.47;;;1.77;;
15102;SDS011;7652;53.584;9.998;2023-04-25T11:07:44;5.03;;;1.47;;
15102;SDS011;7652;53.584;9.998;2023-04-25T11:11:07;4.00;;;1.33;;
15102;SDS011;7652;53.584;9.998;2023-04-25T11:14:11;8.60;;;1.83;;
15102;SDS011;7652;53.584;9.998;2023-04-25T11:17:14;3.53;;;1.30;;
15102;SDS011;7652;53.584;9.998;2023-04-25T11:20:18;4.87;;;1.40;;
15102;SDS011;7652;53.584;9.998;2023-04-25T11:23:22;4.00;;;1.30;;
15102;SDS011;7652;53.584;9.998;2023-04-25T11:26:25;3.93;;;1.47;;
15102;SDS011;7652;53.584;9.998;2023-04-25T11:29:28;2.40;;;1.07;;
15102;SDS011;7652;53.584;9.998;2023-04-25T11:32:31;3.33;;;1.10;;
15102;SDS011;7652;53.584;9.998;2023-04-25T11:35:37;4.17;;;1.30;;
15102;SDS011;7652;53.584;9.998;2023-04-25T11:38:42;5.80;;;1.30;;
15102;SDS011;7652;53.584;9.998;2023-04-25T11:41:46;5.43;;;1.23;;
15102;SDS011;7652;53.584;9.998;2023-04-25T11:44:49;4.50;;;1.10;;
15102;SDS011;7652;53.584;9.998;2023-04-25T11:47:52;2.60;;;0.90;;
15102;SDS011;7652;53.584;9.998;2023-04-25T11:50:56;4.50;;;1.40;;
15102;SDS011;7652;53.584;9.998;2023-04-25T11:53:59;2.30;;;0.90;;
15102;SDS011;7652;53.584;9.998;2023-04-25T11:57:04;5.33;;;1.33;;
15102;SDS011;7652;53.584;9.998;2023-04-25T12:00:08;3.30;;;1.13;;
15102;SDS011;7652;53.584;9.998;2023-04-25T12:03:18;3.57;;;1.27;;
15102;SDS011;7652;53.584;9.998;2023-04-25T12:06:27;7.87;;;1.33;;
15102;SDS011;7652;53.584;9.998;2023-04-25T12:09:31;2.87;;;1.10;;
15102;SDS011;7652;53.584;9.998;2023-04-25T12:12:35;2.70;;;0.93;;
15102;SDS011;7652;53.584;9.998;2023-04-25T12:15:40;2.07;;;0.77;;
15102;SDS011;7652;53.584;9.998;2023-04-25T12:18:43;2.63;;;1.07;;
15102;SDS011;7652;53.584;9.998;2023-04-25T12:21:48;3.73;;;1.10;;
15102;SDS011;7652;53.584;9.998;2023-04-25T12:24:59;4.07;;;1.30;;
15102;SDS011;7652;53.584;9.998;2023-04-25T12:28:14;7.53;;;1.20;;
15102;SDS011;7652;53.584;9.998;2023-04-25T12:31:21;4.13;;;0.90;;
15102;SDS011;7652;53.584;9.998;2023-04-25T12:34:24;2.73;;;0.90;;
15102;SDS011;7652;53.584;9.998;2023-04-25T12:37:29;3.27;;;1.50;;
15102;SDS011;7652;53.584;9.998;2023-04-25T12:40:32;2.77;;;0.87;;
15102;SDS011;7652;53.584;9.998;2023-04-25T12:43:35;3.23;;;1.10;;
15102;SDS011;7652;53.584;9.998;2023-04-25T12:46:38;5.27;;;1.30;;
15102;SDS011;7652;53.584;9.998;2023-04-25T12:49:42;3.77;;;1.30;;
15102;SDS011;7652;53.584;9.998;2023-04-25T12:52:46;4.40;;;1.30;;
15102;SDS011;7652;53.584;9.998;2023-04-25T12:55:49;5.17;;;1.50;;
15102;SDS011;7652;53.584;9.998;2023-04-25T12:58:53;3.37;;;0.80;;
15102;SDS011;7652;53.584;9.998;2023-04-25T13:01:56;4.03;;;1.10;;
15102;SDS011;7652;53.584;9.998;2023-04-25T13:04:59;5.70;;;1.63;;
15102;SDS011;7652;53.584;9.998;2023-04-25T13:08:03;3.23;;;1.10;;
15102;SDS011;7652;53.584;9.998;2023-04-25T13:11:07;2.53;;;1.17;;
15102;SDS011;7652;53.584;9.998;2023-04-25T13:14:10;3.93;;;1.20;;
15102;SDS011;7652;53.584;9.998;2023-04-25T13:17:13;3.07;;;1.27;;
15102;SDS011;7652;53.584;9.998;2023-04-25T13:20:16;3.20;;;0.90;;
15102;SDS011;7652;53.584;9.998;2023-04-25T13:23:21;3.67;;;0.90;;
15102;SDS011;7652;53.584;9.998;2023-04-25T13:26:25;6.10;;;1.20;;
15102;SDS011;7652;53.584;9.998;2023-04-25T13:29:28;7.37;;;3.63;;
15102;SDS011;7652;53.584;9.998;2023-04-25T13:32:31;3.97;;;1.07;;
15102;SDS011;7652;53.584;9.998;2023-04-25T13:35:34;5.43;;;1.27;;
15102;SDS011;7652;53.584;9.998;2023-04-25T13:38:39;4.33;;;1.30;;
15102;SDS011;7652;53.584;9.998;2023-04-25T13:41:45;6.50;;;1.70;;
15102;SDS011;7652;53.584;9.998;2023-04-25T13:44:48;3.93;;;1.40;;
15102;SDS011;7652;53.584;9.998;2023-04-25T13:47:51;4.37;;;1.87;;
15102;SDS011;7652;53.584;9.998;2023-04-25T13:50:54;4.90;;;1.40;;
15102;SDS011;7652;53.584;9.998;2023-04-25T13:53:58;6.07;;;1.40;;
15102;SDS011;7652;53.584;9.998;2023-04-25T13:57:01;5.63;;;1.20;;
15102;SDS011;7652;53.584;9.998;2023-04-25T14:00:05;4.63;;;1.17;;
15102;SDS011;7652;53.584;9.998;2023-04-25T14:03:10;4.73;;;1.20;;
15102;SDS011;7652;53.584;9.998;2023-04-25T14:06:13;4.90;;;1.20;;
15102;SDS011;7652;53.584;9.998;2023-04-25T14:09:23;4.63;;;1.50;;
15102;SDS011;7652;53.584;9.998;2023-04-25T14:12:28;9.87;;;1.60;;
15102;SDS011;7652;53.584;9.998;2023-04-25T14:15:31;6.10;;;1.63;;
15102;SDS011;7652;53.584;9.998;2023-04-25T14:18:34;4.57;;;1.10;;
15102;SDS011;7652;53.584;9.998;2023-04-25T14:21:37;4.77;;;1.40;;
15102;SDS011;7652;53.584;9.998;2023-04-25T14:24:44;8.43;;;1.47;;
15102;SDS011;7652;53.584;9.998;2023-04-25T14:27:47;4.83;;;1.33;;
15102;SDS011;7652;53.584;9.998;2023-04-25T14:30:51;6.33;;;1.50;;
15102;SDS011;7652;53.584;9.998;2023-04-25T14:33:54;5.03;;;1.57;;
15102;SDS011;7652;53.584;9.998;2023-04-25T14:37:00;4.33;;;1.40;;
15102;SDS011;7652;53.584;9.998;2023-04-25T14:40:05;5.40;;;1.67;;
15102;SDS011;7652;53.584;9.998;2023-04-25T14:43:10;3.67;;;1.20;;
15102;SDS011;7652;53.584;9.998;2023-04-25T14:46:12;3.47;;;1.03;;
15102;SDS011;7652;53.584;9.998;2023-04-25T14:49:16;2.70;;;0.80;;
15102;SDS011;7652;53.584;9.998;2023-04-25T14:52:19;4.17;;;1.00;;
15102;SDS011;7652;53.584;9.998;2023-04-25T14:55:23;6.07;;;1.27;;
15102;SDS011;7652;53.584;9.998;2023-04-25T14:58:26;3.80;;;1.20;;
15102;SDS011;7652;53.584;9.998;2023-04-25T15:01:29;1.93;;;0.97;;
15102;SDS011;7652;53.584;9.998;2023-04-25T15:04:33;4.10;;;1.03;;
15102;SDS011;7652;53.584;9.998;2023-04-25T15:07:36;4.53;;;0.90;;
15102;SDS011;7652;53.584;9.998;2023-04-25T15:10:42;6.23;;;1.50;;
15102;SDS011;7652;53.584;9.998;2023-04-25T15:13:44;5.53;;;1.67;;
15102;SDS011;7652;53.584;9.998;2023-04-25T15:16:48;7.37;;;1.80;;
15102;SDS011;7652;53.584;9.998;2023-04-25T15:19:51;5.23;;;1.70;;
15102;SDS011;7652;53.584;9.998;2023-04-25T15:22:56;5.00;;;1.33;;
15102;SDS011;7652;53.584;9.998;2023-04-25T15:26:01;5.97;;;1.53;;
15102;SDS011;7652;53.584;9.998;2023-04-25T15:29:03;5.20;;;1.37;;
15102;SDS011;7652;53.584;9.998;2023-04-25T15:32:07;3.60;;;1.30;;
15102;SDS011;7652;53.584;9.998;2023-04-25T15:35:11;5.67;;;1.40;;
15102;SDS011;7652;53.584;9.998;2023-04-25T15:38:14;4.80;;;1.27;;
15102;SDS011;7652;53.584;9.998;2023-04-25T15:41:18;6.63;;;1.50;;
15102;SDS011;7652;53.584;9.998;2023-04-25T15:44:22;5.80;;;1.40;;
15102;SDS011;7652;53.584;9.998;2023-04-25T15:47:25;4.93;;;1.10;;
15102;SDS011;7652;53.584;9.998;2023-04-25T15:50:28;4.47;;;1.50;;
15102;SDS011;7652;53.584;9.998;2023-04-25T15:53:31;5.57;;;1.20;;
15102;SDS011;7652;53.584;9.998;2023-04-25T15:56:35;4.77;;;1.17;;
15102;SDS011;7652;53.584;9.998;2023-04-25T15:59:38;5.97;;;1.43;;
15102;SDS011;7652;53.584;9.998;2023-04-25T16:02:42;3.83;;;1.00;;
15102;SDS011;7652;53.584;9.998;2023-04-25T16:05:46;4.00;;;0.90;;
15102;SDS011;7652;53.584;9.998;2023-04-25T16:08:49;4.40;;;1.43;;
15102;SDS011;7652;53.584;9.998;2023-04-25T16:11:54;6.03;;;1.33;;
15102;SDS011;7652;53.584;9.998;2023-04-25T16:14:57;6.77;;;1.27;;
15102;SDS011;7652;53.584;9.998;2023-04-25T16:18:00;4.80;;;1.43;;
15102;SDS011;7652;53.584;9.998;2023-04-25T16:21:03;3.73;;;1.33;;
15102;SDS011;7652;53.584;9.998;2023-04-25T16:24:07;5.60;;;1.40;;
15102;SDS011;7652;53.584;9.998;2023-04-25T16:27:11;3.77;;;1.43;;
15102;SDS011;7652;53.584;9.998;2023-04-25T16:30:15;4.77;;;1.10;;
15102;SDS011;7652;53.584;9.998;2023-04-25T16:33:18;4.37;;;1.10;;
15102;SDS011;7652;53.584;9.998;2023-04-25T16:36:21;6.57;;;1.57;;
15102;SDS011;7652;53.584;9.998;2023-04-25T16:39:24;7.37;;;1.50;;
15102;SDS011;7652;53.584;9.998;2023-04-25T16:42:29;7.23;;;1.43;;
15102;SDS011;7652;53.584;9.998;2023-04-25T16:45:32;5.80;;;1.40;;
15102;SDS011;7652;53.584;9.998;2023-04-25T16:48:35;3.40;;;1.03;;
15102;SDS011;7652;53.584;9.998;2023-04-25T16:51:38;5.00;;;1.33;;
15102;SDS011;7652;53.584;9.998;2023-04-25T16:54:41;7.93;;;1.30;;
15102;SDS011;7652;53.584;9.998;2023-04-25T16:57:45;4.53;;;1.17;;
15102;SDS011;7652;53.584;9.998;2023-04-25T17:00:48;3.40;;;0.90;;
15102;SDS011;7652;53.584;9.998;2023-04-25T17:03:51;3.37;;;0.70;;
15102;SDS011;7652;53.584;9.998;2023-04-25T17:06:55;4.30;;;1.30;;
15102;SDS011;7652;53.584;9.998;2023-04-25T17:09:58;4.23;;;0.97;;
15102;SDS011;7652;53.584;9.998;2023-04-25T17:13:02;4.13;;;1.27;;
15102;SDS011;7652;53.584;9.998;2023-04-25T17:16:06;5.27;;;1.20;;
15102;SDS011;7652;53.584;9.998;2023-04-25T17:19:11;5.83;;;1.13;;
15102;SDS011;7652;53.584;9.998;2023-04-25T17:22:14;4.00;;;0.93;;
15102;SDS011;7652;53.584;9.998;2023-04-25T17:25:17;8.33;;;1.10;;
15102;SDS011;7652;53.584;9.998;2023-04-25T17:28:21;2.30;;;0.80;;
15102;SDS011;7652;53.584;9.998;2023-04-25T17:31:24;4.20;;;1.10;;
15102;SDS011;7652;53.584;9.998;2023-04-25T17:34:27;3.53;;;0.93;;
15102;SDS011;7652;53.584;9.998;2023-04-25T17:37:32;5.23;;;1.40;;
15102;SDS011;7652;53.584;9.998;2023-04-25T17:40:35;6.00;;;1.13;;
15102;SDS011;7652;53.584;9.998;2023-04-25T17:43:39;1.83;;;0.83;;
15102;SDS011;7652;53.584;9.998;2023-04-25T17:46:42;2.87;;;1.00;;
15102;SDS011;7652;53.584;9.998;2023-04-25T17:49:46;7.77;;;1.50;;
15102;SDS011;7652;53.584;9.998;2023-04-25T17:52:49;3.03;;;1.20;;
15102;SDS011;7652;53.584;9.998;2023-04-25T17:55:51;1.90;;;0.80;;
15102;SDS011;7652;53.584;9.998;2023-04-25T17:58:56;4.37;;;1.63;;
15102;SDS011;7652;53.584;9.998;2023-04-25T18:01:59;4.47;;;1.53;;
15102;SDS011;7652;53.584;9.998;2023-04-25T18:05:03;8.33;;;1.60;;
15102;SDS011;7652;53.584;9.998;2023-04-25T18:08:09;6.77;;;1.53;;
15102;SDS011;7652;53.584;9.998;2023-04-25T18:11:13;4.17;;;1.33;;
15102;SDS011;7652;53.584;9.998;2023-04-25T18:14:17;3.30;;;1.20;;
15102;SDS011;7652;53.584;9.998;2023-04-25T18:17:20;5.13;;;1.37;;
15102;SDS011;7652;53.584;9.998;2023-04-25T18:20:25;6.00;;;1.57;;
15102;SDS011;7652;53.584;9.998;2023-04-25T18:23:28;6.43;;;1.27;;
15102;SDS011;7652;53.584;9.998;2023-04-25T18:26:32;9.77;;;1.30;;
15102;SDS011;7652;53.584;9.998;2023-04-25T18:29:37;3.77;;;1.40;;
15102;SDS011;7652;53.584;9.998;2023-04-25T18:32:42;5.67;;;1.67;;
15102;SDS011;7652;53.584;9.998;2023-04-25T18:35:46;6.47;;;1.20;;
15102;SDS011;7652;53.584;9.998;2023-04-25T18:38:59;3.67;;;1.40;;
15102;SDS011;7652;53.584;9.998;2023-04-25T18:42:22;3.77;;;1.20;;